Saturday, August 02, 2014
00:30 UTC
  |  Log In   |  Register Free
Airport Search:

John F Kennedy Memorial Airport
(KASX)

John F Kennedy Memorial Airport Diagram
No Airport Diagram Available

FAA data valid effective July 24, 2014 until September 18, 2014 (unless otherwise noted).

 
 
 
 
 
 
 
 
 
 
 
 
 
 

Current Aviation Weather for John F Kennedy Memorial Airport (KASX)

The most recent METAR observation for KASX was updated at: 1753 UTC
METAR Summary (Translated METAR)
KASX
281753Z AUTO 33011KT 10SM SCT049 BKN065 22/12 A3015 RMK AO2 SLP209 T02170117 10228 20128 58003
KIWD
(32.5 nm SE from KASX)
281515Z AUTO 32010KT 10SM FEW070 17/12 A3012 RMK AO1
TAF Summary (Translated TAF)
KIWD
(32.5 nm SE from KASX)
011733Z 0118/0218 35005KT P6SM SKC FM020100 VRB03KT P6SM FEW070 AMD NOT SKED
KHYR
(38.2 nm SW from KASX)
011739Z 0118/0218 VRB04KT P6SM SCT060 FM020500 00000KT 4SM BR SCT005 TEMPO 0208/0212 1 1/2SM BR BKN003 FM021400 18006KT P6SM SCT060
  Airport Weather Conditions for KASX

 Current Weather at ASX
70° F
Fair
North winds at 5.8 mph
ASX NOAA Radar

Pressure: 30.08 in
Humidity: 76%
Wind: North at 5.8 MPH (5 KT)
Dew Point: 62.1°F
Visibility: 10.00 mi


Airport Weather Forecast for KASX

Translated METAR and TAF for KASX
Translated METAR for KASX (0023 UTC 02 August 2014)
found at http://aviationweather.gov/adds/metars/
 
METAR text: KASX 012353Z AUTO 35005KT 10SM CLR 21/17 A3008 RMK AO2 SLP186 T02110167 10256 20211 55001
Conditions at: KASX (ASHLAND , WI, US) observed 2353 UTC 01 August 2014
Temperature: 21.1°C (70°F)
Dewpoint: 16.7°C (62°F) [RH = 76%]
Pressure (altimeter): 30.08 inches Hg (1018.7 mb)
[Sea-level pressure: 1018.6 mb]
Winds: from the N (350 degrees) at 6 MPH (5 knots; 2.6 m/s)
Visibility: 10 or more miles (16+ km)
Ceiling: at least 12,000 feet AGL
Clouds: sky clear below 12,000 feet AGL
Weather: automated observation with no human augmentation;
there may or may not be significant weather present at this time
Translated TAF for KASX

There is no translated TAF available for this airport

Find All Airport Services Find A Hotel Find A Rental Car Find A Golf Course Find A Restaurant $100 Hamburger



FBO's on the Field
FBO Company Facility Photos Services Transportation Aviation Fuel Prices: Prices include tax
Catering Weather Repair Courtesy Rental Type 100LL JetA JetA+ MOGAS 8087
 
John F Kennedy Memorial Airport

This FBO has not yet been rated
FS:Phillips66
Last Updated: Jul-10
Login to update fuel prices
SS:
Contact John F Kennedy Memorial AirportMore FBO Information
 
Add another FBO Facility Photos Catering Weather Repair Courtesy Rental Type 100LL JetA JetA+ MOGAS 8087
Services Transportation Aviation Fuel Prices: Prices include tax


GlobalAir.com Airport Resource Center model-print
model-print
model-print
model-print